Clarence, Illinois
Current Conditions -  °F | °C
As of 9:10 PM on Wednesday 22 Oct 2014 (Local Time) from KTIP Reporting Station
Clear Clear  
Wind Chill: 46°   Ceiling: Unl
Heat Index: 46°   Visibility: 10mi
Dew Point: 36°   Wind: 0mph
Humidity: 69%   Direction: NA
Pressure: 30.25"   Gusts: NA
Location:  40.4466°N, 87.8907°W
Report Text: KTIP 230210Z AUTO 00000KT 10SM CLR 08/02 A3025 RMK AO2 T00750021
Loading
Personal Weather Stations






























Interactive Weather Map
Tropical Storm Tracking
New forecast layout! Learn more

10-Day Weather Forecast

Advertisements
Track Severe Weather on mobile